Time;durP1;ratioP1;P1;durP2;ratioP2;P2;SDS_P1;SDS_P2;PMS_P1;PMS_P2;Temp;Humidity;BMP_temperature;BMP_pressure;BME280_temperature;BME280_humidity;BME280_pressure;Samples;Min_cycle;Max_cycle;Signal;HPM_P1;HPM_P2
2021/04/12 04:02:15;;;;;;;3.40;2.35;;;3.20;99.90;;;;;;5342715;23;20236;-72
2021/04/12 04:05:20;;;;;;;2.92;2.83;;;3.30;99.90;;;;;;4974923;28;20227;-72
2021/04/12 04:08:20;;;;;;;2.30;2.20;;;3.20;99.90;;;;;;4975956;28;20718;-72
2021/04/12 04:11:01;;;;;;;3.25;3.03;;;3.20;99.90;;;;;;4974367;28;20236;-72
2021/04/12 04:13:45;;;;;;;2.95;2.65;;;3.20;99.90;;;;;;4976592;28;20331;-72
2021/04/12 04:16:22;;;;;;;5.60;2.70;;;3.20;99.90;;;;;;4972286;28;20203;-73
2021/04/12 04:18:58;;;;;;;8.20;2.90;;;3.20;99.90;;;;;;4976428;28;20220;-72
2021/04/12 04:21:55;;;;;;;3.47;3.17;;;3.10;99.90;;;;;;4977376;28;20227;-72
2021/04/12 04:24:48;;;;;;;3.28;2.85;;;3.10;99.90;;;;;;4966016;28;20534;-73
2021/04/12 04:27:42;;;;;;;2.60;2.35;;;3.10;99.90;;;;;;4978144;28;20271;-73
2021/04/12 04:30:26;;;;;;;9.82;2.67;;;3.10;99.90;;;;;;4944944;28;20275;-72
2021/04/12 04:33:06;;;;;;;2.75;2.63;;;3.10;99.90;;;;;;4975357;28;20227;-73
2021/04/12 04:36:18;;;;;;;5.03;2.80;;;3.00;99.90;;;;;;4974924;28;20220;-72
2021/04/12 04:39:05;;;;;;;2.38;2.28;;;3.00;99.90;;;;;;4972364;28;20204;-72
2021/04/12 04:41:53;;;;;;;4.78;2.92;;;3.00;99.90;;;;;;4974254;28;20320;-72
2021/04/12 04:44:51;;;;;;;5.60;2.30;;;3.00;99.90;;;;;;4976584;28;20204;-73
2021/04/12 04:47:54;;;;;;;2.97;2.70;;;2.90;99.90;;;;;;4964624;28;20654;-72
2021/04/12 04:50:38;;;;;;;3.20;2.92;;;2.90;99.90;;;;;;4976095;28;20207;-73
2021/04/12 04:53:50;;;;;;;3.17;2.83;;;2.90;99.90;;;;;;4974652;28;20200;-72
2021/04/12 04:56:23;;;;;;;3.17;2.80;;;2.90;99.90;;;;;;4951371;28;20221;-73
2021/04/12 04:59:07;;;;;;;4.25;3.88;;;2.90;99.90;;;;;;4974300;28;20267;-73
2021/04/12 05:01:46;;;;;;;2.97;2.80;;;2.90;99.90;;;;;;4974861;28;20232;-73
2021/04/12 05:04:36;;;;;;;2.33;2.22;;;2.90;99.90;;;;;;4956635;28;20220;-73
2021/04/12 05:07:32;;;;;;;3.45;3.15;;;2.90;99.90;;;;;;4974479;28;20209;-73
2021/04/12 05:10:24;;;;;;;4.93;3.20;;;2.90;99.90;;;;;;4975676;28;20279;-73
2021/04/12 05:13:08;;;;;;;3.55;2.50;;;2.90;99.90;;;;;;4965952;28;20209;-73
2021/04/12 05:16:09;;;;;;;2.53;2.15;;;3.00;99.90;;;;;;4973785;28;20213;-73
2021/04/12 05:18:55;;;;;;;2.65;2.55;;;3.00;99.90;;;;;;4943202;28;20212;-73
2021/04/12 05:21:48;;;;;;;2.70;2.50;;;3.00;99.90;;;;;;4974393;28;20224;-73
2021/04/12 05:24:42;;;;;;;2.92;2.35;;;3.10;99.90;;;;;;4955135;28;20217;-73
2021/04/12 05:27:40;;;;;;;3.33;2.88;;;3.20;99.90;;;;;;4976710;28;20204;-73
2021/04/12 05:30:33;;;;;;;3.10;2.35;;;3.30;99.90;;;;;;4971223;28;20208;-73
2021/04/12 05:33:09;;;;;;;2.53;2.28;;;3.50;99.90;;;;;;4977354;28;20212;-73
2021/04/12 05:35:48;;;;;;;2.63;2.40;;;3.60;99.90;;;;;;4975681;28;20208;-73
2021/04/12 05:38:41;;;;;;;4.30;1.80;;;3.60;99.90;;;;;;4975469;28;20204;-72
2021/04/12 05:41:35;;;;;;;3.13;2.92;;;3.60;99.90;;;;;;4950368;28;20228;-70
2021/04/12 05:44:33;;;;;;;2.33;2.22;;;3.60;99.90;;;;;;4976316;28;20193;-70
2021/04/12 05:47:25;;;;;;;4.53;3.10;;;3.70;99.90;;;;;;4957450;28;20685;-70
2021/04/12 05:50:14;;;;;;;3.65;2.72;;;3.70;99.90;;;;;;4960414;28;20700;-71
2021/04/12 05:53:05;;;;;;;3.55;1.65;;;3.80;99.90;;;;;;4976170;28;20200;-70
2021/04/12 05:55:57;;;;;;;2.40;2.30;;;3.90;99.90;;;;;;4976397;28;20204;-73
2021/04/12 05:58:32;;;;;;;1.80;1.80;;;4.00;99.90;;;;;;4975976;28;20208;-72
2021/04/12 06:01:10;;;;;;;4.35;2.08;;;4.30;99.90;;;;;;4975240;28;20781;-70
2021/04/12 06:03:44;;;;;;;2.13;2.05;;;4.40;99.90;;;;;;4975153;28;20205;-71
2021/04/12 06:06:41;;;;;;;2.25;1.70;;;4.50;99.90;;;;;;4975576;28;20220;-71
2021/04/12 06:09:38;;;;;;;2.00;1.85;;;4.50;99.90;;;;;;4975381;28;20224;-71
2021/04/12 06:12:50;;;;;;;1.98;1.83;;;4.40;99.90;;;;;;4975474;28;20307;-71
2021/04/12 06:15:47;;;;;;;1.80;1.73;;;4.30;99.90;;;;;;4955572;28;20300;-71
2021/04/12 06:18:46;;;;;;;2.75;2.38;;;4.30;99.90;;;;;;4975733;28;20208;-71
2021/04/12 06:21:25;;;;;;;3.83;1.90;;;4.40;99.90;;;;;;4942784;28;20283;-71
2021/04/12 06:24:38;;;;;;;1.95;1.85;;;4.40;99.90;;;;;;4971961;28;20510;-71
2021/04/12 06:27:29;;;;;;;9.70;2.03;;;4.40;99.90;;;;;;4887324;29;20585;-70
2021/04/12 06:30:10;;;;;;;1.92;1.92;;;4.50;99.90;;;;;;4976092;28;20324;-71
2021/04/12 06:33:09;;;;;;;4.50;2.00;;;4.50;99.90;;;;;;4975759;28;20227;-70
2021/04/12 06:35:59;;;;;;;1.83;1.83;;;4.60;99.90;;;;;;4972999;28;20204;-70
2021/04/12 06:38:52;;;;;;;1.83;1.73;;;4.70;99.90;;;;;;4975054;28;20212;-71
2021/04/12 06:42:04;;;;;;;2.38;1.75;;;4.80;99.90;;;;;;4975427;28;20232;-71
2021/04/12 06:45:00;;;;;;;2.00;2.00;;;4.90;99.90;;;;;;4947470;28;20240;-71
2021/04/12 06:47:54;;;;;;;2.22;2.05;;;4.90;99.90;;;;;;4920593;28;20272;-71
2021/04/12 06:51:19;;;;;;;2.83;2.10;;;4.90;99.90;;;;;;4959865;28;20653;-73
2021/04/12 06:54:25;;;;;;;5.40;2.78;;;5.00;99.90;;;;;;4971987;28;20220;-75
2021/04/12 06:57:33;;;;;;;2.60;2.10;;;4.90;99.90;;;;;;4973755;28;20208;-73
2021/04/12 07:00:39;;;;;;;2.10;2.00;;;4.90;99.90;;;;;;4972919;28;20208;-73
2021/04/12 07:03:45;;;;;;;3.25;2.05;;;4.90;99.90;;;;;;4975069;28;20221;-73
2021/04/12 07:06:40;;;;;;;2.10;2.00;;;5.00;99.90;;;;;;4971037;28;20208;-74
2021/04/12 07:09:39;;;;;;;2.70;2.10;;;5.00;99.90;;;;;;4972464;28;20692;-73
2021/04/12 07:12:35;;;;;;;4.07;2.15;;;5.10;99.90;;;;;;4968325;28;20677;-73
2021/04/12 07:15:23;;;;;;;5.60;3.10;;;5.10;99.90;;;;;;4971051;28;20565;-74
2021/04/12 07:18:40;;;;;;;2.85;2.38;;;5.20;99.90;;;;;;4974849;28;20204;-74
2021/04/12 07:21:30;;;;;;;2.72;1.90;;;5.30;99.90;;;;;;4955585;28;20580;-72
2021/04/12 07:24:34;;;;;;;2.13;1.95;;;5.40;99.90;;;;;;4955239;28;20665;-73
2021/04/12 07:27:37;;;;;;;2.28;2.10;;;5.40;99.90;;;;;;4963483;28;20542;-73
2021/04/12 07:30:41;;;;;;;3.28;2.10;;;5.50;99.90;;;;;;4972346;28;20723;-73
2021/04/12 07:33:38;;;;;;;2.75;2.38;;;5.50;99.90;;;;;;4949463;28;20290;-73
2021/04/12 07:36:45;;;;;;;2.85;2.67;;;5.50;99.90;;;;;;4974683;28;20236;-73
2021/04/12 07:39:42;;;;;;;2.88;2.58;;;5.40;99.90;;;;;;4957269;28;20300;-74
2021/04/12 07:42:41;;;;;;;4.10;1.80;;;5.50;99.90;;;;;;4972565;28;20228;-74
2021/04/12 07:46:11;;;;;;;3.03;1.83;;;5.60;99.90;;;;;;4974580;28;20588;-74
2021/04/12 07:49:11;;;;;;;2.88;2.30;;;5.70;99.90;;;;;;4943135;28;20315;-74
2021/04/12 07:52:15;;;;;;;3.03;2.38;;;5.80;99.90;;;;;;4954869;28;20241;-74
2021/04/12 07:55:27;;;;;;;2.38;2.28;;;5.90;99.90;;;;;;4967580;28;20204;-74
2021/04/12 07:58:33;;;;;;;7.05;3.65;;;6.10;99.90;;;;;;4975946;28;20204;-72
2021/04/12 08:01:38;;;;;;;1.83;1.73;;;6.20;99.90;;;;;;4986923;28;20234;-72
2021/04/12 08:04:38;;;;;;;3.30;3.03;;;6.20;99.90;;;;;;4976715;28;20211;-71
2021/04/12 08:07:40;;;;;;;6.97;5.20;;;6.30;99.90;;;;;;4973487;28;20212;-71
2021/04/12 08:10:52;;;;;;;3.00;2.05;;;6.50;99.90;;;;;;4972627;28;20219;-71
2021/04/12 08:13:59;;;;;;;1.80;1.70;;;6.60;99.90;;;;;;4948876;28;20208;-71
2021/04/12 08:17:21;;;;;;;3.55;2.40;;;6.70;99.90;;;;;;4977847;28;20208;-71
2021/04/12 08:20:22;;;;;;;4.95;2.05;;;6.90;99.90;;;;;;4973253;28;20204;-71
2021/04/12 08:23:40;;;;;;;1.83;1.73;;;7.20;99.90;;;;;;4966556;28;20278;-71
2021/04/12 08:26:52;;;;;;;2.58;1.70;;;7.50;99.90;;;;;;4973217;28;20200;-71
2021/04/12 08:30:10;;;;;;;3.25;1.55;;;7.60;99.90;;;;;;4973313;28;20224;-72
2021/04/12 08:33:17;;;;;;;1.85;1.40;;;7.70;99.90;;;;;;4954435;28;20213;-71
2021/04/12 08:36:21;;;;;;;7.25;2.17;;;7.60;99.90;;;;;;4971927;28;20211;-72
2021/04/12 08:39:23;;;;;;;3.53;1.23;;;7.70;99.90;;;;;;4973021;28;20212;-72
2021/04/12 08:42:09;;;;;;;1.52;1.40;;;7.70;99.90;;;;;;4970254;28;20228;-71
2021/04/12 08:45:11;;;;;;;1.27;1.27;;;7.80;99.90;;;;;;4973455;28;20208;-71
2021/04/12 08:48:14;;;;;;;1.05;1.02;;;7.90;99.90;;;;;;4943349;28;20200;-71
2021/04/12 08:51:22;;;;;;;4.28;1.25;;;8.00;99.90;;;;;;4972979;28;20722;-71
2021/04/12 08:54:12;;;;;;;2.47;1.75;;;8.10;99.90;;;;;;4972207;28;20469;-71
2021/04/12 08:56:58;;;;;;;2.58;1.20;;;8.20;99.90;;;;;;4973602;28;20231;-72
2021/04/12 08:59:58;;;;;;;4.88;1.50;;;8.10;99.90;;;;;;4973836;28;20606;-73
2021/04/12 09:03:05;;;;;;;1.20;1.20;;;7.90;99.90;;;;;;4976730;28;20235;-73
2021/04/12 09:06:13;;;;;;;2.85;2.05;;;7.80;99.90;;;;;;4946327;28;20582;-73
2021/04/12 09:09:34;;;;;;;2.92;1.20;;;7.80;99.90;;;;;;4958629;28;20573;-71
2021/04/12 09:12:26;;;;;;;1.33;1.10;;;8.00;99.90;;;;;;4976300;28;20228;-74
2021/04/12 09:15:23;;;;;;;1.95;1.20;;;8.30;99.90;;;;;;4976655;28;20205;-74
2021/04/12 09:18:14;;;;;;;2.00;1.90;;;8.30;99.90;;;;;;4975539;28;20208;-75
2021/04/12 09:21:01;;;;;;;1.60;1.50;;;8.20;99.90;;;;;;4968627;28;20229;-75
2021/04/12 09:24:00;;;;;;;1.55;1.13;;;8.20;99.90;;;;;;4977798;28;20217;-75
2021/04/12 09:27:03;;;;;;;6.68;2.00;;;8.00;99.90;;;;;;4961956;28;20288;-75
2021/04/12 09:30:01;;;;;;;2.17;1.58;;;8.00;99.90;;;;;;4976434;28;20271;-74
2021/04/12 09:33:10;;;;;;;1.58;0.70;;;8.00;99.90;;;;;;4977963;28;20261;-73
2021/04/12 09:36:05;;;;;;;3.60;0.95;;;8.30;99.90;;;;;;4974135;28;20606;-70
2021/04/12 09:39:09;;;;;;;1.23;0.85;;;8.50;99.90;;;;;;4976224;28;20602;-72
2021/04/12 09:42:07;;;;;;;5.90;3.30;;;8.60;99.90;;;;;;4972132;28;20236;-72
2021/04/12 09:45:27;;;;;;;19.48;16.38;;;8.60;99.90;;;;;;4976837;28;20204;-72
2021/04/12 09:48:13;;;;;;;1.33;1.30;;;8.70;99.90;;;;;;4965300;28;20231;-72
2021/04/12 09:51:44;;;;;;;2.33;1.33;;;8.80;99.90;;;;;;4975125;28;20220;-73
2021/04/12 09:54:42;;;;;;;14.75;12.48;;;9.10;99.90;;;;;;4956051;28;20220;-74
2021/04/12 09:57:47;;;;;;;2.45;0.90;;;9.20;99.90;;;;;;4970602;28;20201;-73
2021/04/12 10:00:52;;;;;;;1.98;1.00;;;9.00;99.90;;;;;;4944267;28;20212;-73
2021/04/12 10:03:58;;;;;;;2.15;1.40;;;8.90;99.90;;;;;;4971614;28;20220;-73
2021/04/12 10:06:46;;;;;;;2.60;1.30;;;9.10;99.90;;;;;;4975558;28;20204;-73
2021/04/12 10:09:37;;;;;;;1.15;1.00;;;9.40;99.90;;;;;;4975354;28;20255;-72
2021/04/12 10:12:24;;;;;;;1.50;1.33;;;9.40;99.90;;;;;;4936821;28;20233;-72
2021/04/12 10:14:56;;;;;;;1.10;1.00;;;9.10;99.90;;;;;;4972660;28;20223;-73
2021/04/12 10:17:30;;;;;;;3.80;1.02;;;8.80;99.90;;;;;;4975736;28;20657;-73
2021/04/12 10:20:00;;;;;;;2.60;1.50;;;8.70;99.90;;;;;;4976930;28;20561;-73
2021/04/12 10:22:47;;;;;;;1.13;0.75;;;8.80;99.90;;;;;;4974686;28;20228;-74
2021/04/12 10:25:21;;;;;;;4.63;0.90;;;9.00;99.90;;;;;;4976701;28;20546;-74
2021/04/12 10:27:50;;;;;;;2.88;0.90;;;9.00;99.90;;;;;;4975747;28;20534;-73
2021/04/12 10:30:21;;;;;;;0.55;0.55;;;8.90;99.90;;;;;;4976724;28;20708;-73
2021/04/12 10:32:51;;;;;;;1.80;0.90;;;8.80;99.90;;;;;;4975923;28;20684;-74
2021/04/12 10:35:21;;;;;;;1.75;0.88;;;8.80;99.90;;;;;;4975537;28;20291;-70
2021/04/12 10:37:58;;;;;;;1.02;1.00;;;9.00;99.90;;;;;;4975254;28;20642;-74
2021/04/12 10:40:28;;;;;;;1.25;1.00;;;9.10;99.90;;;;;;4975836;28;20204;-74
2021/04/12 10:43:03;;;;;;;1.13;0.80;;;9.30;99.90;;;;;;4975246;28;20197;-74
2021/04/12 10:45:32;;;;;;;1.55;0.73;;;9.60;99.90;;;;;;4974702;28;20278;-75
2021/04/12 10:48:05;;;;;;;1.73;1.00;;;9.60;99.90;;;;;;4974694;28;20215;-71
2021/04/12 10:50:53;;;;;;;4.97;1.20;;;9.50;99.90;;;;;;4974194;28;20224;-71
2021/04/12 10:53:42;;;;;;;2.53;1.95;;;9.40;99.90;;;;;;4973958;28;20279;-71
2021/04/12 10:56:14;;;;;;;0.90;0.90;;;9.30;99.90;;;;;;4975109;28;20308;-71
2021/04/12 10:59:09;;;;;;;0.60;0.60;;;9.30;99.90;;;;;;4974619;28;20197;-71
2021/04/12 11:01:42;;;;;;;2.30;0.80;;;9.20;99.90;;;;;;4971137;28;20731;-71
2021/04/12 11:04:22;;;;;;;1.52;1.13;;;9.20;99.90;;;;;;4971347;28;20665;-72
2021/04/12 11:07:05;;;;;;;2.17;0.80;;;9.20;99.90;;;;;;4972594;28;20267;-71
2021/04/12 11:09:46;;;;;;;0.70;0.70;;;9.20;99.90;;;;;;4971609;28;20220;-71
2021/04/12 11:12:21;;;;;;;5.35;1.70;;;9.10;99.90;;;;;;4972248;28;20353;-71
2021/04/12 11:14:57;;;;;;;3.80;1.10;;;8.90;99.90;;;;;;4973658;28;20665;-71
2021/04/12 11:17:35;;;;;;;1.38;0.60;;;8.80;99.90;;;;;;4971965;28;20216;-71
2021/04/12 11:20:07;;;;;;;1.05;0.60;;;8.90;99.90;;;;;;4972132;28;20196;-71
2021/04/12 11:22:47;;;;;;;0.75;0.75;;;9.00;99.90;;;;;;4971102;28;20263;-71
2021/04/12 11:25:19;;;;;;;0.80;0.75;;;9.20;99.90;;;;;;4973134;28;20215;-73
2021/04/12 11:28:01;;;;;;;1.45;1.35;;;9.50;99.90;;;;;;4973215;28;20209;-71
2021/04/12 11:30:34;;;;;;;1.75;0.63;;;9.70;99.90;;;;;;4973446;28;20121;-70
2021/04/12 11:33:16;;;;;;;0.70;0.70;;;9.80;99.90;;;;;;4974364;28;20530;-71
2021/04/12 11:35:53;;;;;;;1.45;0.80;;;10.00;99.90;;;;;;4974455;28;20204;-71
2021/04/12 11:38:22;;;;;;;0.80;0.80;;;10.10;99.90;;;;;;4974454;28;20215;-71
2021/04/12 11:40:55;;;;;;;1.48;0.90;;;10.10;99.90;;;;;;4975800;28;20232;-71
2021/04/12 11:43:27;;;;;;;1.85;1.15;;;10.20;99.90;;;;;;4975239;28;20200;-71
2021/04/12 11:46:00;;;;;;;0.93;0.90;;;10.40;99.90;;;;;;4975382;28;20618;-74
2021/04/12 11:48:34;;;;;;;0.90;0.90;;;10.30;99.80;;;;;;4973818;28;20200;-74
2021/04/12 11:51:05;;;;;;;0.90;0.90;;;10.20;98.70;;;;;;4973981;28;20228;-73
2021/04/12 11:53:45;;;;;;;1.52;0.80;;;10.10;99.60;;;;;;4973778;28;20204;-71
2021/04/12 11:56:24;;;;;;;1.95;0.68;;;10.00;99.90;;;;;;4973750;28;20212;-71
2021/04/12 11:58:55;;;;;;;0.80;0.80;;;9.90;99.90;;;;;;4973572;28;20204;-71
2021/04/12 12:01:28;;;;;;;1.25;1.10;;;9.90;99.90;;;;;;4973083;28;20695;-71
2021/04/12 12:04:09;;;;;;;1.10;1.02;;;9.80;99.90;;;;;;4973430;28;20204;-74
2021/04/12 12:06:43;;;;;;;1.17;1.08;;;9.80;99.90;;;;;;4973768;28;20231;-74
2021/04/12 12:09:18;;;;;;;1.10;1.10;;;9.90;99.90;;;;;;4972963;28;20231;-74
2021/04/12 12:11:57;;;;;;;1.67;1.25;;;9.80;99.90;;;;;;4973387;28;20234;-74
2021/04/12 12:14:33;;;;;;;1.00;1.00;;;9.70;99.90;;;;;;4973774;28;20204;-74
2021/04/12 12:17:00;;;;;;;0.90;0.90;;;9.70;99.90;;;;;;4972897;28;20686;-74
2021/04/12 12:19:36;;;;;;;1.08;0.90;;;9.60;99.90;;;;;;4973400;28;20316;-74
2021/04/12 12:22:08;;;;;;;4.38;1.33;;;9.60;99.90;;;;;;4973006;28;20224;-71
2021/04/12 12:24:44;;;;;;;1.95;1.02;;;9.60;99.90;;;;;;4973102;28;20204;-74
2021/04/12 12:27:15;;;;;;;4.65;3.55;;;9.70;99.80;;;;;;4973521;28;20666;-74
2021/04/12 12:29:45;;;;;;;3.30;3.10;;;10.00;98.30;;;;;;4973433;28;20228;-74
2021/04/12 12:32:44;;;;;;;0.80;0.80;;;10.30;96.60;;;;;;4972797;28;20224;-73
2021/04/12 12:35:19;;;;;;;0.60;0.60;;;10.30;99.90;;;;;;4975350;28;20215;-74
2021/04/12 12:38:01;;;;;;;1.77;0.95;;;9.90;99.90;;;;;;4976770;28;20891;-73
2021/04/12 12:40:31;;;;;;;2.05;0.80;;;9.70;99.90;;;;;;4977323;28;20232;-74
2021/04/12 12:43:05;;;;;;;0.98;0.98;;;9.60;99.90;;;;;;4975911;28;20248;-74
2021/04/12 12:45:36;;;;;;;0.60;0.60;;;9.70;99.90;;;;;;4977140;28;20208;-72
2021/04/12 12:48:06;;;;;;;0.80;0.70;;;9.80;99.90;;;;;;4977053;28;20208;-74
2021/04/12 12:50:43;;;;;;;0.45;0.45;;;9.80;99.90;;;;;;4977087;28;20239;-72
2021/04/12 12:53:13;;;;;;;0.57;0.57;;;9.70;99.90;;;;;;4976653;28;20212;-73
2021/04/12 12:55:46;;;;;;;0.63;0.63;;;9.60;98.80;;;;;;4977525;28;20211;-72
2021/04/12 12:58:19;;;;;;;0.85;0.65;;;9.50;99.00;;;;;;4977732;28;20601;-73
2021/04/12 13:00:47;;;;;;;0.80;0.80;;;9.50;99.70;;;;;;4976337;28;20247;-73
2021/04/12 13:03:27;;;;;;;0.93;0.93;;;9.60;99.90;;;;;;4976904;28;20219;-73
2021/04/12 13:05:55;;;;;;;1.10;1.10;;;9.80;99.90;;;;;;4976914;28;20256;-73
2021/04/12 13:08:25;;;;;;;1.55;1.55;;;9.80;99.80;;;;;;4976730;28;20249;-73
2021/04/12 13:10:53;;;;;;;1.63;1.60;;;9.80;99.90;;;;;;4977292;28;20578;-73
2021/04/12 13:13:28;;;;;;;1.33;1.23;;;9.60;99.90;;;;;;4976721;28;20547;-73
2021/04/12 13:15:57;;;;;;;1.70;1.40;;;9.30;99.90;;;;;;4976391;28;20223;-70
2021/04/12 13:18:32;;;;;;;1.90;1.80;;;9.00;99.90;;;;;;4976533;28;20231;-70
2021/04/12 13:21:14;;;;;;;2.65;2.45;;;8.80;99.90;;;;;;4976697;28;20239;-70
2021/04/12 13:23:53;;;;;;;1.88;1.77;;;8.60;99.90;;;;;;4976170;28;20621;-70
2021/04/12 13:26:27;;;;;;;2.30;2.30;;;8.40;99.90;;;;;;4976402;28;20208;-70
2021/04/12 13:28:57;;;;;;;1.70;1.60;;;8.50;99.90;;;;;;4976471;28;20602;-71
2021/04/12 13:31:35;;;;;;;4.93;4.65;;;8.60;99.90;;;;;;4975729;28;20803;-71
2021/04/12 13:34:06;;;;;;;2.58;2.42;;;8.80;99.90;;;;;;4976519;28;20216;-70
2021/04/12 13:36:34;;;;;;;1.35;1.25;;;9.10;99.90;;;;;;4976488;28;20208;-71
2021/04/12 13:39:04;;;;;;;1.10;1.10;;;9.20;99.90;;;;;;4976048;28;20204;-71
2021/04/12 13:41:36;;;;;;;2.58;2.47;;;9.30;99.90;;;;;;4976138;28;20228;-70
2021/04/12 13:44:09;;;;;;;1.63;1.63;;;9.40;99.90;;;;;;4976252;28;20208;-70
2021/04/12 13:46:49;;;;;;;1.85;1.20;;;9.40;99.90;;;;;;4975138;28;20220;-70
2021/04/12 13:49:18;;;;;;;1.10;1.10;;;9.50;99.90;;;;;;4976575;28;20248;-70
2021/04/12 13:51:50;;;;;;;3.45;3.20;;;9.60;99.90;;;;;;4975827;28;20228;-69
2021/04/12 13:54:20;;;;;;;3.22;3.00;;;9.60;99.90;;;;;;4975757;28;20609;-69
2021/04/12 13:56:50;;;;;;;1.20;1.20;;;9.50;99.90;;;;;;4975870;28;20224;-69
2021/04/12 13:59:24;;;;;;;1.30;1.30;;;9.50;99.90;;;;;;4976582;28;20209;-68
2021/04/12 14:01:54;;;;;;;1.50;1.40;;;9.30;99.90;;;;;;4975365;28;20263;-69
2021/04/12 14:04:22;;;;;;;1.77;1.77;;;9.20;99.90;;;;;;4975756;28;20211;-68
2021/04/12 14:07:02;;;;;;;1.65;1.55;;;9.20;99.90;;;;;;4975387;28;20204;-71
2021/04/12 14:09:35;;;;;;;1.33;1.30;;;9.20;99.90;;;;;;4976058;28;20231;-69
2021/04/12 14:12:06;;;;;;;2.33;1.90;;;9.20;99.90;;;;;;4976117;28;20233;-69
2021/04/12 14:14:41;;;;;;;1.88;1.77;;;9.20;99.90;;;;;;4975844;28;20219;-69
2021/04/12 14:17:13;;;;;;;2.72;2.55;;;9.30;99.90;;;;;;4975287;28;20219;-69
2021/04/12 14:19:46;;;;;;;1.38;1.38;;;9.40;99.90;;;;;;4975960;28;20200;-68
2021/04/12 14:22:19;;;;;;;4.32;4.00;;;9.30;99.90;;;;;;4975646;28;20891;-74
2021/04/12 14:24:49;;;;;;;1.30;1.30;;;9.40;99.90;;;;;;4975487;28;20342;-73
2021/04/12 14:27:22;;;;;;;4.95;4.55;;;9.30;99.90;;;;;;4975272;28;20208;-69
2021/04/12 14:29:57;;;;;;;2.70;2.60;;;9.40;99.90;;;;;;4975274;28;20232;-70
2021/04/12 14:32:26;;;;;;;1.45;1.45;;;9.50;99.90;;;;;;4975225;28;20291;-70
2021/04/12 14:34:59;;;;;;;1.33;1.33;;;9.60;99.90;;;;;;4975397;28;20216;-71
2021/04/12 14:37:29;;;;;;;1.58;1.48;;;9.60;99.90;;;;;;4975267;28;20637;-71
2021/04/12 14:40:10;;;;;;;4.90;4.22;;;9.70;99.90;;;;;;4975233;28;20573;-70
2021/04/12 14:42:44;;;;;;;2.78;2.58;;;9.60;99.90;;;;;;4975039;28;20220;-70
2021/04/12 14:45:13;;;;;;;1.95;1.85;;;9.60;99.90;;;;;;4974942;28;20285;-70
2021/04/12 14:47:47;;;;;;;2.30;2.20;;;9.60;99.90;;;;;;4975717;28;20615;-70
2021/04/12 14:50:17;;;;;;;1.83;1.73;;;9.60;99.90;;;;;;4974816;28;20303;-70
2021/04/12 14:52:48;;;;;;;8.18;6.20;;;9.50;99.90;;;;;;4974745;28;20613;-71
2021/04/12 14:55:24;;;;;;;2.65;2.45;;;9.60;99.90;;;;;;4975171;28;20558;-70
2021/04/12 14:57:53;;;;;;;2.47;2.35;;;9.60;99.90;;;;;;4974399;28;20212;-70
2021/04/12 15:00:24;;;;;;;2.47;1.77;;;9.60;99.90;;;;;;4973892;28;20197;-70
2021/04/12 15:02:58;;;;;;;2.67;2.10;;;9.60;99.90;;;;;;4974823;28;20575;-71
2021/04/12 15:05:36;;;;;;;1.30;1.30;;;9.50;98.90;;;;;;4974843;28;20220;-71
2021/04/12 15:08:09;;;;;;;1.25;1.20;;;9.50;99.30;;;;;;4974574;28;20378;-71
2021/04/12 15:10:39;;;;;;;1.33;1.10;;;9.60;98.80;;;;;;4974336;28;20279;-71
2021/04/12 15:13:09;;;;;;;3.25;2.95;;;9.70;97.10;;;;;;4975159;28;20243;-71
2021/04/12 15:15:40;;;;;;;0.93;0.93;;;9.80;96.90;;;;;;4975083;28;20211;-72
2021/04/12 15:18:14;;;;;;;1.52;1.52;;;9.90;96.00;;;;;;4974976;28;20222;-71
2021/04/12 15:20:45;;;;;;;1.13;1.10;;;9.90;95.90;;;;;;4974368;28;20217;-71
2021/04/12 15:23:21;;;;;;;3.08;1.23;;;9.70;95.40;;;;;;4974125;28;20267;-71
2021/04/12 15:26:11;;;;;;;1.13;1.13;;;9.60;95.00;;;;;;4974524;28;20211;-71
2021/04/12 15:28:38;;;;;;;1.17;1.15;;;9.50;96.10;;;;;;4974992;28;20216;-71
2021/04/12 15:31:25;;;;;;;8.80;1.73;;;9.50;97.70;;;;;;4974173;28;20221;-71
2021/04/12 15:33:53;;;;;;;3.03;2.83;;;9.50;98.40;;;;;;4973496;28;20230;-71
2021/04/12 15:36:30;;;;;;;4.10;2.97;;;9.40;97.60;;;;;;4974267;28;20201;-71
2021/04/12 15:38:57;;;;;;;2.65;2.45;;;9.40;99.40;;;;;;4979108;28;20216;-71
2021/04/12 15:41:29;;;;;;;1.40;1.30;;;9.40;98.50;;;;;;4975386;28;20363;-72
2021/04/12 15:44:04;;;;;;;2.42;2.22;;;9.30;99.90;;;;;;4975585;28;20287;-71
2021/04/12 15:46:38;;;;;;;0.90;0.90;;;9.20;99.90;;;;;;4973539;28;20215;-71
2021/04/12 15:49:07;;;;;;;2.20;1.30;;;9.20;99.90;;;;;;4973416;28;20227;-70
2021/04/12 15:51:37;;;;;;;1.90;1.80;;;9.20;99.90;;;;;;4973511;28;20228;-70
2021/04/12 15:54:09;;;;;;;1.70;1.70;;;9.40;99.40;;;;;;4972359;28;20642;-71
2021/04/12 15:56:39;;;;;;;3.80;1.80;;;9.40;99.50;;;;;;4973783;28;20211;-71
2021/04/12 15:59:12;;;;;;;1.75;1.63;;;9.20;97.80;;;;;;4972977;28;20208;-71
2021/04/12 16:01:49;;;;;;;1.40;1.40;;;9.00;98.20;;;;;;4972836;28;20244;-70
2021/04/12 16:04:28;;;;;;;1.50;1.50;;;8.90;98.40;;;;;;4973250;28;20212;-71
2021/04/12 16:07:06;;;;;;;1.20;1.20;;;8.80;98.80;;;;;;4971592;28;20196;-70
2021/04/12 16:09:34;;;;;;;1.30;1.30;;;8.90;98.80;;;;;;4970260;28;20243;-72
2021/04/12 16:12:03;;;;;;;2.13;1.35;;;8.90;97.20;;;;;;4968121;28;20236;-72
2021/04/12 16:14:36;;;;;;;1.13;1.13;;;8.90;96.50;;;;;;4973753;28;20208;-71
2021/04/12 16:17:11;;;;;;;1.60;1.50;;;9.00;97.20;;;;;;4967774;28;20204;-71
2021/04/12 16:19:42;;;;;;;3.10;1.48;;;9.00;97.20;;;;;;4977320;28;20207;-71
2021/04/12 16:22:19;;;;;;;2.17;1.95;;;9.00;97.30;;;;;;4980442;28;20224;-71
2021/04/12 16:24:48;;;;;;;2.13;2.03;;;8.90;97.90;;;;;;4977188;28;20215;-70
2021/04/12 16:27:23;;;;;;;2.92;2.10;;;8.90;98.50;;;;;;4971650;28;20636;-70
2021/04/12 16:29:57;;;;;;;1.90;1.80;;;8.90;98.60;;;;;;4970653;28;20685;-71
2021/04/12 16:32:29;;;;;;;1.73;1.73;;;8.70;99.40;;;;;;4953801;28;20287;-71
2021/04/12 16:35:02;;;;;;;2.10;2.00;;;8.70;99.70;;;;;;4964520;28;20216;-70
2021/04/12 16:37:34;;;;;;;1.58;1.58;;;8.70;99.80;;;;;;4953952;28;20602;-70
2021/04/12 16:40:02;;;;;;;1.13;1.13;;;8.70;99.70;;;;;;4969152;28;20208;-70
2021/04/12 16:42:32;;;;;;;1.75;1.30;;;8.80;99.20;;;;;;4956891;28;20707;-70
2021/04/12 16:45:05;;;;;;;2.17;1.77;;;8.80;99.70;;;;;;4972331;28;20215;-70
2021/04/12 16:47:39;;;;;;;1.48;1.48;;;8.70;99.90;;;;;;4972922;28;20522;-70
2021/04/12 16:50:13;;;;;;;1.60;1.27;;;8.70;99.90;;;;;;4972504;28;20223;-70
2021/04/12 16:52:43;;;;;;;2.85;1.35;;;8.50;99.90;;;;;;4972677;28;20212;-70
2021/04/12 16:55:19;;;;;;;2.25;1.30;;;8.30;99.90;;;;;;4970591;28;20218;-71
2021/04/12 16:57:51;;;;;;;1.30;1.30;;;8.20;99.90;;;;;;4969867;28;20239;-70
2021/04/12 17:00:30;;;;;;;2.08;1.95;;;8.10;99.90;;;;;;4970897;28;20215;-70
2021/04/12 17:03:11;;;;;;;2.63;2.53;;;8.00;99.90;;;;;;4971739;28;20645;-69
2021/04/12 17:05:43;;;;;;;3.30;3.00;;;7.80;99.90;;;;;;4970438;28;20239;-68
2021/04/12 17:08:14;;;;;;;1.67;1.55;;;7.70;99.90;;;;;;4972585;28;20209;-69
2021/04/12 17:10:48;;;;;;;2.25;2.05;;;7.60;99.90;;;;;;4972385;28;20356;-70
2021/04/12 17:13:22;;;;;;;5.18;2.97;;;7.50;99.90;;;;;;4972179;28;20297;-70
2021/04/12 17:15:57;;;;;;;4.53;2.72;;;7.30;99.90;;;;;;4971717;28;20207;-69
2021/04/12 17:18:28;;;;;;;2.42;1.40;;;7.30;99.90;;;;;;4971614;28;20693;-69
2021/04/12 17:21:06;;;;;;;2.05;1.60;;;7.20;99.90;;;;;;4974144;28;20294;-71
2021/04/12 17:23:40;;;;;;;1.83;1.80;;;7.00;99.90;;;;;;4974918;28;20215;-72
2021/04/12 17:26:08;;;;;;;0.98;0.98;;;6.90;99.90;;;;;;4975805;28;20220;-74
2021/04/12 17:28:39;;;;;;;1.10;1.10;;;6.90;99.90;;;;;;4975439;28;20723;-74
2021/04/12 17:31:10;;;;;;;1.10;1.10;;;6.80;99.90;;;;;;4975300;28;20232;-74
2021/04/12 17:33:50;;;;;;;0.68;0.60;;;6.70;99.90;;;;;;4973981;28;20851;-74
2021/04/12 17:36:20;;;;;;;1.15;0.80;;;6.60;99.90;;;;;;4961069;28;20275;-74
2021/04/12 17:38:48;;;;;;;0.90;0.90;;;6.60;99.90;;;;;;4975205;28;20255;-75
2021/04/12 17:41:20;;;;;;;1.30;1.00;;;6.60;99.90;;;;;;4975413;28;20224;-74
2021/04/12 17:43:51;;;;;;;1.50;1.40;;;6.60;99.90;;;;;;4971655;28;20220;-69
2021/04/12 17:46:24;;;;;;;5.18;3.45;;;6.50;99.90;;;;;;4974188;28;20212;-71
2021/04/12 17:48:54;;;;;;;1.20;1.20;;;6.40;99.90;;;;;;4972266;28;20219;-69
2021/04/12 17:51:23;;;;;;;2.60;1.02;;;6.40;99.90;;;;;;4972306;28;20225;-70
2021/04/12 17:53:59;;;;;;;1.20;1.20;;;6.30;99.90;;;;;;4977949;28;20546;-70
2021/04/12 17:56:28;;;;;;;2.10;1.90;;;6.30;99.90;;;;;;4975659;28;20204;-70
2021/04/12 17:59:04;;;;;;;2.30;2.20;;;6.20;99.90;;;;;;4974243;28;20259;-70
2021/04/12 18:01:39;;;;;;;2.05;1.92;;;6.10;99.90;;;;;;4973746;28;20713;-69
2021/04/12 18:04:09;;;;;;;1.20;0.95;;;6.10;99.90;;;;;;4966123;28;20633;-70
2021/04/12 18:06:42;;;;;;;1.70;1.60;;;6.00;99.90;;;;;;4968068;28;20291;-70
2021/04/12 18:09:17;;;;;;;1.52;1.52;;;6.00;99.90;;;;;;4970347;28;20251;-72
2021/04/12 18:11:47;;;;;;;1.88;1.88;;;5.90;99.90;;;;;;4971988;28;20278;-70
2021/04/12 18:14:27;;;;;;;1.38;1.38;;;5.90;99.90;;;;;;4971518;28;20324;-69
2021/04/12 18:16:55;;;;;;;1.85;1.63;;;5.80;99.90;;;;;;4971653;28;20264;-67
2021/04/12 18:19:28;;;;;;;1.05;1.05;;;5.80;99.90;;;;;;4971286;28;20638;-68